Time;durP1;ratioP1;P1;durP2;ratioP2;P2;SDS_P1;SDS_P2;PMS_P1;PMS_P2;Temp;Humidity;BMP_temperature;BMP_pressure;BME280_temperature;BME280_humidity;BME280_pressure;Samples;Min_cycle;Max_cycle;Signal;HPM_P1;HPM_P2
2022/03/04 00:00:07;;;;;;;20.03;10.53;;;;;;;2.78;69.02;98930.31;5094485;28;20418;-65
2022/03/04 00:02:34;;;;;;;22.90;10.80;;;;;;;2.73;69.53;98932.22;5093849;28;20198;-58
2022/03/04 00:05:03;;;;;;;23.37;11.13;;;;;;;2.89;68.25;98937.44;5093987;28;20242;-58
2022/03/04 00:07:30;;;;;;;22.17;11.30;;;;;;;2.91;68.31;98925.59;5095181;28;20198;-66
2022/03/04 00:09:56;;;;;;;21.63;10.80;;;;;;;3.00;67.28;98930.22;5095031;28;20218;-66
2022/03/04 00:12:23;;;;;;;20.27;11.13;;;;;;;3.05;67.44;98923.25;5094867;28;20226;-58
2022/03/04 00:14:50;;;;;;;23.30;10.73;;;;;;;3.09;66.98;98924.78;5094899;28;20233;-58
2022/03/04 00:17:17;;;;;;;23.63;10.73;;;;;;;3.11;67.11;98935.63;5094019;28;20202;-66
2022/03/04 00:19:45;;;;;;;20.10;10.10;;;;;;;3.09;67.02;98929.00;5093418;28;20209;-67
2022/03/04 00:22:15;;;;;;;21.37;10.83;;;;;;;3.07;66.87;98930.78;5094327;28;20202;-57
2022/03/04 00:24:42;;;;;;;20.27;11.20;;;;;;;3.05;66.47;98922.44;5096273;28;20201;-66
2022/03/04 00:27:09;;;;;;;19.63;10.07;;;;;;;2.95;67.72;98927.88;5094258;28;20205;-58
2022/03/04 00:29:36;;;;;;;19.03;9.90;;;;;;;3.00;66.68;98924.38;5094752;28;20197;-59
2022/03/04 00:32:03;;;;;;;18.20;9.40;;;;;;;3.03;66.62;98919.19;5093194;28;20198;-66
2022/03/04 00:34:30;;;;;;;21.00;10.27;;;;;;;2.99;67.37;98917.66;5095119;28;20311;-66
2022/03/04 00:36:57;;;;;;;19.50;10.07;;;;;;;2.95;67.48;98919.50;5095466;28;20288;-58
2022/03/04 00:39:25;;;;;;;18.23;9.73;;;;;;;2.97;67.65;98909.31;5095190;28;20204;-58
2022/03/04 00:41:52;;;;;;;15.93;9.50;;;;;;;3.02;66.59;98913.28;5094878;28;20702;-66
2022/03/04 00:44:19;;;;;;;19.20;10.37;;;;;;;3.05;66.83;98907.28;5094082;28;20205;-58
2022/03/04 00:46:46;;;;;;;17.90;9.60;;;;;;;3.10;65.84;98910.44;5093231;28;20221;-67
2022/03/04 00:49:13;;;;;;;18.00;9.40;;;;;;;2.97;66.81;98914.38;5094994;28;20206;-66
2022/03/04 00:51:40;;;;;;;19.13;9.90;;;;;;;2.95;66.79;98910.22;5094587;28;20221;-57
2022/03/04 00:54:07;;;;;;;19.17;9.80;;;;;;;3.03;67.18;98911.59;5094017;28;20782;-58
2022/03/04 00:56:37;;;;;;;18.23;10.07;;;;;;;3.08;67.22;98914.72;5094283;28;20221;-66
2022/03/04 00:59:05;;;;;;;17.53;9.43;;;;;;;3.06;67.28;98906.41;5094607;28;20597;-58
2022/03/04 01:01:32;;;;;;;16.40;9.13;;;;;;;3.02;68.01;98907.41;5093157;28;20302;-58
2022/03/04 01:03:59;;;;;;;17.77;9.70;;;;;;;3.02;67.65;98902.38;5093840;28;20284;-66
2022/03/04 01:06:26;;;;;;;16.63;9.23;;;;;;;3.06;67.60;98909.75;5094197;28;20225;-66
2022/03/04 01:08:54;;;;;;;18.00;9.80;;;;;;;3.06;67.63;98908.94;5093475;28;20210;-67
2022/03/04 01:11:21;;;;;;;16.43;9.33;;;;;;;3.11;67.43;98901.94;5094883;28;20222;-61
2022/03/04 01:13:49;;;;;;;19.30;9.73;;;;;;;3.08;67.77;98897.03;5092465;28;20634;-59
2022/03/04 01:16:16;;;;;;;16.60;9.53;;;;;;;3.15;67.45;98893.38;5093696;28;20226;-58
2022/03/04 01:18:43;;;;;;;19.57;9.60;;;;;;;3.09;67.19;98898.69;5094283;28;20198;-66
2022/03/04 01:21:10;;;;;;;20.30;9.77;;;;;;;3.01;67.67;98901.56;5093089;28;20228;-66
2022/03/04 01:23:37;;;;;;;20.30;10.20;;;;;;;2.97;67.66;98899.22;5093696;28;20571;-58
2022/03/04 01:26:05;;;;;;;21.27;9.27;;;;;;;2.84;68.27;98892.19;5093991;28;20623;-58
2022/03/04 01:28:32;;;;;;;17.50;9.50;;;;;;;2.78;69.32;98894.97;5095130;28;20210;-58
2022/03/04 01:31:01;;;;;;;18.60;9.83;;;;;;;2.82;70.74;98900.72;5091896;28;20217;-66
2022/03/04 01:33:28;;;;;;;17.30;9.20;;;;;;;2.81;69.35;98894.03;5091311;28;20261;-66
2022/03/04 01:35:55;;;;;;;18.83;9.60;;;;;;;2.87;69.19;98892.06;5093281;28;20225;-66
2022/03/04 01:38:23;;;;;;;16.17;9.33;;;;;;;2.80;69.70;98889.88;5092929;28;20361;-66
2022/03/04 01:40:50;;;;;;;18.13;10.17;;;;;;;2.84;70.03;98902.28;5094236;28;20253;-66
2022/03/04 01:43:17;;;;;;;15.97;9.30;;;;;;;2.79;70.29;98896.59;5093313;28;20213;-60
2022/03/04 01:45:43;;;;;;;18.97;9.50;;;;;;;2.86;70.14;98892.13;5093807;28;20222;-66
2022/03/04 01:48:12;;;;;;;21.57;10.03;;;;;;;2.78;69.76;98892.47;5092958;28;20202;-66
2022/03/04 01:50:39;;;;;;;16.93;9.50;;;;;;;2.60;71.10;98895.78;5092467;28;20229;-66
2022/03/04 01:53:06;;;;;;;19.90;10.20;;;;;;;2.71;70.46;98888.56;5091638;28;20626;-66
2022/03/04 01:55:34;;;;;;;23.83;10.57;;;;;;;2.69;69.30;98885.28;5094429;28;20229;-66
2022/03/04 01:58:01;;;;;;;22.07;10.93;;;;;;;2.82;68.56;98888.09;5092984;28;20205;-66
2022/03/04 02:00:28;;;;;;;23.97;10.93;;;;;;;2.84;68.59;98884.63;5093449;28;20222;-58
2022/03/04 02:02:59;;;;;;;22.57;10.43;;;;;;;2.90;68.44;98883.53;5094417;28;20206;-66
2022/03/04 02:05:27;;;;;;;20.10;9.87;;;;;;;2.78;68.22;98879.84;5092617;28;20309;-66
2022/03/04 02:07:55;;;;;;;19.13;10.20;;;;;;;2.79;67.62;98870.56;5093851;28;20202;-58
2022/03/04 02:10:22;;;;;;;20.43;10.03;;;;;;;2.80;68.19;98878.06;5093634;28;20248;-64
2022/03/04 02:12:49;;;;;;;18.97;10.00;;;;;;;2.79;67.99;98881.47;5092364;28;20209;-66
2022/03/04 02:15:16;;;;;;;20.10;10.07;;;;;;;2.82;68.22;98886.41;5092794;28;20218;-66
2022/03/04 02:17:43;;;;;;;21.17;9.90;;;;;;;2.94;67.82;98885.88;5092495;28;20202;-58
2022/03/04 02:20:11;;;;;;;17.33;9.80;;;;;;;2.89;68.70;98892.81;5091730;28;20229;-58
2022/03/04 02:22:39;;;;;;;21.33;10.43;;;;;;;2.92;68.27;98891.88;5093269;28;20676;-58
2022/03/04 02:25:07;;;;;;;20.93;10.33;;;;;;;2.81;68.28;98884.75;5093262;28;20226;-65
2022/03/04 02:27:34;;;;;;;21.00;10.53;;;;;;;2.73;68.05;98886.78;5092319;28;20214;-58
2022/03/04 02:30:01;;;;;;;24.13;11.10;;;;;;;2.88;67.37;98881.09;5092578;28;20232;-66
2022/03/04 02:32:28;;;;;;;23.30;11.10;;;;;;;2.61;68.74;98877.22;5091453;28;20206;-65
2022/03/04 02:34:55;;;;;;;19.50;10.47;;;;;;;2.72;68.34;98885.16;5091559;28;20241;-60
2022/03/04 02:37:23;;;;;;;22.27;10.40;;;;;;;2.75;68.47;98885.03;5093252;28;20202;-67
2022/03/04 02:39:51;;;;;;;21.13;10.10;;;;;;;2.56;68.62;98881.63;5092842;28;20610;-59
2022/03/04 02:42:18;;;;;;;19.67;10.47;;;;;;;2.33;69.27;98882.63;5091791;28;20202;-65
2022/03/04 02:44:45;;;;;;;22.60;11.07;;;;;;;2.28;68.90;98879.47;5091544;28;20236;-64
2022/03/04 02:47:12;;;;;;;22.40;10.87;;;;;;;2.17;69.01;98887.50;5096846;28;20292;-65
2022/03/04 02:49:39;;;;;;;19.50;9.67;;;;;;;2.19;68.96;98881.50;5096838;28;20201;-65
2022/03/04 02:52:06;;;;;;;19.47;9.93;;;;;;;2.16;68.59;98886.66;5094947;28;20197;-57
2022/03/04 02:54:33;;;;;;;22.23;10.63;;;;;;;2.07;69.37;98886.25;5096192;28;20241;-57
2022/03/04 02:57:03;;;;;;;22.13;11.13;;;;;;;1.99;69.57;98884.84;5096008;28;20202;-65
2022/03/04 02:59:30;;;;;;;21.77;11.13;;;;;;;2.01;69.48;98883.06;5096992;28;20279;-57
2022/03/04 03:01:58;;;;;;;22.03;10.97;;;;;;;1.95;69.30;98887.53;5094702;28;20202;-65
2022/03/04 03:04:27;;;;;;;27.43;12.10;;;;;;;1.86;69.38;98883.66;5095865;28;20209;-65
2022/03/04 03:06:54;;;;;;;28.93;13.40;;;;;;;1.83;69.67;98888.84;5098603;28;20204;-57
2022/03/04 03:09:21;;;;;;;26.27;12.33;;;;;;;1.75;69.96;98885.81;5095986;28;20206;-56
2022/03/04 03:11:48;;;;;;;23.60;11.80;;;;;;;1.73;69.92;98885.06;5095687;28;20226;-65
2022/03/04 03:14:16;;;;;;;23.40;12.33;;;;;;;1.84;69.42;98882.13;5096671;28;20257;-65
2022/03/04 03:16:43;;;;;;;23.73;10.40;;;;;;;1.72;69.78;98885.94;5096624;28;20233;-65
2022/03/04 03:19:11;;;;;;;19.00;10.50;;;;;;;1.71;69.31;98889.31;5098393;28;20218;-56
2022/03/04 03:21:38;;;;;;;19.90;10.20;;;;;;;1.65;69.65;98887.88;5097271;28;20218;-62
2022/03/04 03:24:06;;;;;;;18.87;10.17;;;;;;;1.69;69.96;98881.84;5096863;28;20198;-57
2022/03/04 03:26:33;;;;;;;25.37;10.57;;;;;;;1.72;69.98;98883.44;5096072;28;20233;-56
2022/03/04 03:29:00;;;;;;;19.27;10.03;;;;;;;1.61;70.40;98877.97;5095121;28;20225;-57
2022/03/04 03:31:28;;;;;;;18.97;10.07;;;;;;;1.71;69.57;98877.53;5095107;28;20228;-56
2022/03/04 03:33:55;;;;;;;19.70;10.10;;;;;;;1.72;69.46;98879.19;5095648;28;20268;-65
2022/03/04 03:36:22;;;;;;;20.20;10.03;;;;;;;1.69;70.07;98881.84;5095716;28;20229;-56
2022/03/04 03:38:49;;;;;;;22.13;10.60;;;;;;;1.61;69.77;98878.81;5095277;28;20190;-57
2022/03/04 03:41:15;;;;;;;18.83;10.33;;;;;;;1.52;70.25;98882.50;5094938;28;20683;-65
2022/03/04 03:43:44;;;;;;;19.13;9.93;;;;;;;1.44;70.86;98871.88;5095761;28;20206;-56
2022/03/04 03:46:11;;;;;;;22.20;10.53;;;;;;;1.37;71.82;98880.56;5096076;28;20218;-65
2022/03/04 03:48:40;;;;;;;17.70;10.27;;;;;;;1.47;70.87;98876.00;5094927;28;20208;-56
2022/03/04 03:51:07;;;;;;;20.37;10.87;;;;;;;1.38;70.76;98882.19;5096567;28;20323;-59
2022/03/04 03:53:34;;;;;;;19.10;9.47;;;;;;;1.33;71.14;98877.31;5095273;28;20738;-64
2022/03/04 03:56:01;;;;;;;19.00;10.40;;;;;;;1.26;71.31;98880.97;5094747;28;20222;-65
2022/03/04 03:58:28;;;;;;;19.90;10.30;;;;;;;1.21;72.19;98879.50;5095376;28;20198;-65
2022/03/04 04:00:55;;;;;;;20.27;10.00;;;;;;;1.19;72.04;98871.19;5095823;28;20228;-65
2022/03/04 04:03:22;;;;;;;24.47;10.53;;;;;;;1.13;72.36;98878.09;5095264;28;20230;-57
2022/03/04 04:05:50;;;;;;;22.43;9.30;;;;;;;1.03;72.62;98871.75;5094437;28;20218;-56
2022/03/04 04:08:17;;;;;;;22.40;10.23;;;;;;;0.96;72.72;98870.34;5095364;28;20198;-64
2022/03/04 04:10:44;;;;;;;20.60;9.90;;;;;;;0.89;73.33;98868.91;5095533;28;20275;-65
2022/03/04 04:13:12;;;;;;;20.87;10.07;;;;;;;0.84;73.72;98858.19;5094516;28;20210;-65
2022/03/04 04:15:39;;;;;;;23.27;9.87;;;;;;;0.88;73.88;98863.06;5094630;28;20240;-65
2022/03/04 04:18:08;;;;;;;22.37;10.87;;;;;;;0.80;74.01;98865.03;5095380;28;20213;-64
2022/03/04 04:20:36;;;;;;;19.83;10.63;;;;;;;0.74;74.78;98864.44;5096329;28;20222;-64
2022/03/04 04:23:05;;;;;;;18.93;9.80;;;;;;;0.74;74.66;98870.28;5095937;28;20224;-65
2022/03/04 04:25:32;;;;;;;20.80;9.93;;;;;;;0.70;75.10;98863.75;5095183;28;20733;-64
2022/03/04 04:27:59;;;;;;;20.80;10.13;;;;;;;0.65;75.00;98865.59;5094458;28;20584;-56
2022/03/04 04:30:26;;;;;;;19.23;10.70;;;;;;;0.71;74.93;98864.56;5094748;28;20735;-56
2022/03/04 04:32:53;;;;;;;27.60;10.40;;;;;;;0.70;74.72;98867.94;5094910;28;20205;-64
2022/03/04 04:35:21;;;;;;;21.67;10.30;;;;;;;0.67;75.20;98868.88;5094816;28;20241;-64
2022/03/04 04:37:47;;;;;;;20.10;10.07;;;;;;;0.65;74.84;98876.47;5094259;28;20284;-56
2022/03/04 04:40:16;;;;;;;21.97;10.20;;;;;;;0.63;75.30;98880.72;5093907;28;20252;-60
2022/03/04 04:42:43;;;;;;;31.10;11.60;;;;;;;0.65;75.31;98871.44;5095530;28;20388;-56
2022/03/04 04:45:11;;;;;;;22.27;10.80;;;;;;;0.64;75.75;98874.00;5094645;28;20230;-56
2022/03/04 04:47:38;;;;;;;20.33;10.80;;;;;;;0.67;75.84;98878.94;5094472;28;20668;-56
2022/03/04 04:50:07;;;;;;;21.23;10.10;;;;;;;0.65;76.19;98875.66;5095111;28;20222;-64
2022/03/04 04:52:34;;;;;;;19.40;10.57;;;;;;;0.62;75.86;98880.78;5094557;28;20222;-64
2022/03/04 04:55:01;;;;;;;22.10;10.80;;;;;;;0.54;76.89;98891.13;5095399;28;20622;-55
2022/03/04 04:57:29;;;;;;;20.50;9.93;;;;;;;0.50;77.27;98886.25;5095334;28;20198;-57
2022/03/04 04:59:56;;;;;;;24.60;10.83;;;;;;;0.54;77.17;98887.78;5095723;28;20232;-65
2022/03/04 05:02:23;;;;;;;21.90;10.77;;;;;;;0.52;77.62;98890.34;5094769;28;20283;-57
2022/03/04 05:04:50;;;;;;;20.97;10.30;;;;;;;0.51;78.10;98893.75;5094682;28;20226;-56
2022/03/04 05:07:17;;;;;;;19.77;9.80;;;;;;;0.54;77.73;98898.66;5094840;28;20201;-56
2022/03/04 05:09:44;;;;;;;19.83;10.23;;;;;;;0.62;77.30;98900.91;5094298;28;20423;-65
2022/03/04 05:12:11;;;;;;;20.67;10.40;;;;;;;0.70;76.25;98908.19;5092658;28;20202;-64
2022/03/04 05:14:39;;;;;;;20.43;11.07;;;;;;;0.73;75.80;98905.56;5093295;28;20237;-56
2022/03/04 05:17:06;;;;;;;20.83;10.47;;;;;;;0.78;75.94;98902.00;5093018;28;20206;-65
2022/03/04 05:19:33;;;;;;;25.10;10.73;;;;;;;0.86;75.46;98911.81;5094936;28;20210;-57
2022/03/04 05:22:00;;;;;;;20.43;10.83;;;;;;;0.91;74.91;98912.47;5095072;28;20201;-65
2022/03/04 05:24:27;;;;;;;21.87;10.17;;;;;;;1.01;73.97;98913.78;5075261;28;20198;-56
2022/03/04 05:26:54;;;;;;;20.40;10.40;;;;;;;0.92;74.33;98919.13;5092956;28;20205;-65
2022/03/04 05:29:21;;;;;;;21.50;10.93;;;;;;;0.93;75.34;98915.75;5095096;28;20209;-56
2022/03/04 05:31:50;;;;;;;19.87;9.60;;;;;;;1.08;75.79;98925.28;5094411;28;20221;-64
2022/03/04 05:34:16;;;;;;;22.13;10.03;;;;;;;1.25;75.02;98931.38;5093434;28;20237;-57
2022/03/04 05:36:44;;;;;;;22.13;10.80;;;;;;;1.31;75.77;98921.09;5093781;28;20221;-56
2022/03/04 05:39:11;;;;;;;23.23;10.97;;;;;;;1.56;74.18;98931.88;5092933;28;20259;-65
2022/03/04 05:41:38;;;;;;;23.33;10.67;;;;;;;1.76;73.89;98937.88;5094060;28;20225;-64
2022/03/04 05:44:05;;;;;;;19.90;10.60;;;;;;;1.99;73.17;98932.75;5093866;28;20212;-65
2022/03/04 05:46:33;;;;;;;20.23;11.00;;;;;;;2.20;72.21;98935.28;5093791;28;20641;-57
2022/03/04 05:49:02;;;;;;;22.57;10.97;;;;;;;2.43;69.86;98940.19;5094077;28;20205;-57
2022/03/04 05:51:29;;;;;;;20.53;11.03;;;;;;;2.68;70.81;98941.72;5092752;28;20225;-56
2022/03/04 05:53:57;;;;;;;17.33;10.03;;;;;;;2.99;69.64;98937.84;5093536;28;20206;-57
2022/03/04 05:56:24;;;;;;;22.30;11.00;;;;;;;3.26;68.75;98941.72;5095136;28;20202;-57
2022/03/04 05:58:52;;;;;;;19.53;11.10;;;;;;;3.59;67.73;98948.66;5093260;28;20206;-56
2022/03/04 06:01:19;;;;;;;19.93;10.60;;;;;;;3.92;66.47;98945.44;5092988;28;20226;-65
2022/03/04 06:03:46;;;;;;;20.77;10.17;;;;;;;4.22;64.21;98949.03;5095952;28;20316;-57
2022/03/04 06:06:14;;;;;;;18.27;10.60;;;;;;;4.48;62.41;98949.44;5093746;28;20222;-57
2022/03/04 06:08:41;;;;;;;18.00;9.87;;;;;;;4.73;61.93;98949.88;5093754;28;20206;-56
2022/03/04 06:11:09;;;;;;;20.03;10.80;;;;;;;5.06;61.54;98954.13;5093820;28;20222;-57
2022/03/04 06:13:36;;;;;;;16.77;9.50;;;;;;;5.36;60.09;98955.94;5093817;28;20205;-57
2022/03/04 06:16:04;;;;;;;16.13;9.87;;;;;;;5.67;59.72;98953.41;5091165;28;20664;-57
2022/03/04 06:18:31;;;;;;;15.63;9.73;;;;;;;5.90;58.51;98954.69;5091495;28;20216;-57
2022/03/04 06:20:58;;;;;;;19.17;10.13;;;;;;;5.99;56.94;98958.47;5094107;28;20222;-57
2022/03/04 06:23:26;;;;;;;17.13;10.03;;;;;;;6.24;58.35;98952.81;5096361;28;20216;-57
2022/03/04 06:25:55;;;;;;;17.37;9.43;;;;;;;6.44;56.08;98954.22;5098513;28;20225;-57
2022/03/04 06:28:22;;;;;;;15.20;9.23;;;;;;;6.63;54.01;98953.16;5096928;28;20240;-66
2022/03/04 06:30:50;;;;;;;15.63;9.50;;;;;;;6.85;54.38;98952.72;5097869;28;20252;-57
2022/03/04 06:33:32;;;;;;;18.57;9.90;;;;;;;7.04;54.33;98953.28;5096618;28;20198;-63
2022/03/04 06:36:01;;;;;;;16.87;9.77;;;;;;;7.28;54.29;98963.69;5096455;28;20233;-57
2022/03/04 06:38:29;;;;;;;17.23;9.60;;;;;;;7.38;53.48;98963.94;5097382;28;20198;-66
2022/03/04 06:40:57;;;;;;;16.30;9.43;;;;;;;7.70;53.10;98967.03;5096317;28;20230;-63
2022/03/04 06:43:25;;;;;;;15.40;9.70;;;;;;;7.74;50.91;98968.50;5096606;28;20294;-66
2022/03/04 06:45:52;;;;;;;18.17;9.73;;;;;;;7.89;51.46;98967.53;5095876;28;20218;-65
2022/03/04 06:48:21;;;;;;;17.27;9.20;;;;;;;8.09;51.05;98980.75;5096166;28;20209;-65
2022/03/04 06:50:50;;;;;;;18.30;9.80;;;;;;;8.20;49.74;98973.19;5098598;28;20316;-65
2022/03/04 06:53:17;;;;;;;16.53;9.63;;;;;;;8.43;52.69;98976.03;5095931;28;20206;-57
2022/03/04 06:55:47;;;;;;;17.00;9.40;;;;;;;8.65;49.52;98976.25;5095738;28;20244;-66
2022/03/04 06:58:14;;;;;;;15.17;9.47;;;;;;;8.79;49.44;98983.81;5095042;28;20228;-65
2022/03/04 07:00:41;;;;;;;15.00;9.33;;;;;;;8.82;48.29;98978.50;5096965;28;20217;-66
2022/03/04 07:03:10;;;;;;;18.13;10.10;;;;;;;8.60;47.64;98983.38;5095837;28;20209;-65
2022/03/04 07:05:37;;;;;;;16.50;9.63;;;;;;;8.75;50.33;98990.00;5099628;28;20264;-65
2022/03/04 07:08:06;;;;;;;16.43;9.43;;;;;;;9.07;47.61;98981.94;5098058;28;20202;-57
2022/03/04 07:10:34;;;;;;;16.63;9.80;;;;;;;9.30;46.11;98983.75;5096956;28;20214;-65
2022/03/04 07:13:03;;;;;;;18.63;9.60;;;;;;;9.42;46.94;98981.28;5099144;28;20228;-66
2022/03/04 07:15:30;;;;;;;16.23;9.33;;;;;;;9.44;45.08;98982.00;5098837;28;20244;-66
2022/03/04 07:17:58;;;;;;;16.97;9.97;;;;;;;9.28;45.99;98980.50;5098270;28;20209;-57
2022/03/04 07:20:26;;;;;;;16.37;9.50;;;;;;;9.28;46.53;98985.59;5097455;28;20253;-65
2022/03/04 07:22:54;;;;;;;18.70;10.30;;;;;;;9.58;46.83;98983.59;5099238;28;20209;-57
2022/03/04 07:25:21;;;;;;;18.27;10.10;;;;;;;9.23;47.88;98980.00;5098724;28;20598;-63
2022/03/04 07:27:49;;;;;;;20.47;11.73;;;;;;;9.45;49.37;98981.06;5096138;28;20634;-58
2022/03/04 07:30:18;;;;;;;20.03;10.43;;;;;;;9.74;46.78;98981.59;5097086;28;20240;-66
2022/03/04 07:32:46;;;;;;;20.47;10.47;;;;;;;10.00;46.96;98981.47;5097797;28;20205;-57
2022/03/04 07:35:14;;;;;;;19.00;10.20;;;;;;;9.97;44.68;98987.63;5096743;28;20218;-57
2022/03/04 07:37:42;;;;;;;22.63;11.00;;;;;;;9.18;45.08;98981.22;5097154;28;20228;-66
2022/03/04 07:40:12;;;;;;;17.93;10.47;;;;;;;9.54;45.55;98980.44;5096582;28;20221;-66
2022/03/04 07:42:39;;;;;;;19.50;10.27;;;;;;;10.07;47.02;98988.59;5097432;28;20209;-66
2022/03/04 07:45:08;;;;;;;16.80;10.77;;;;;;;10.83;44.08;98982.19;5096574;28;20234;-57
2022/03/04 07:47:38;;;;;;;21.23;11.60;;;;;;;11.10;44.53;98979.28;5096360;28;20204;-58
2022/03/04 07:50:06;;;;;;;22.53;12.40;;;;;;;10.40;42.55;98987.09;5095902;28;20222;-65
2022/03/04 07:52:33;;;;;;;21.13;10.93;;;;;;;9.62;45.76;98988.38;5096159;28;20198;-58
2022/03/04 07:55:02;;;;;;;21.30;11.77;;;;;;;9.75;45.40;98978.94;5096783;28;20238;-66
2022/03/04 07:57:29;;;;;;;20.53;11.53;;;;;;;9.66;44.45;98984.69;5096170;28;20256;-66
2022/03/04 07:59:56;;;;;;;19.83;11.00;;;;;;;9.98;45.85;98984.97;5097101;28;20233;-61
2022/03/04 08:02:23;;;;;;;19.77;11.23;;;;;;;10.12;45.47;98983.16;5097549;28;20208;-66
2022/03/04 08:04:52;;;;;;;20.63;11.70;;;;;;;9.94;45.24;98983.53;5095701;28;20221;-66
2022/03/04 08:07:19;;;;;;;19.43;11.77;;;;;;;9.35;45.95;98985.19;5095778;28;20216;-58
2022/03/04 08:09:46;;;;;;;20.10;11.73;;;;;;;9.78;48.73;98985.56;5095009;28;20226;-58
2022/03/04 08:12:14;;;;;;;21.67;11.60;;;;;;;10.32;49.54;98991.97;5094210;28;20210;-57
2022/03/04 08:14:41;;;;;;;23.30;13.03;;;;;;;10.73;45.20;98985.53;5095535;28;20202;-57
2022/03/04 08:17:08;;;;;;;20.87;11.57;;;;;;;11.00;43.12;98988.59;5094577;28;20186;-58
2022/03/04 08:19:35;;;;;;;22.90;12.60;;;;;;;10.92;44.21;98985.81;5094764;28;20248;-58
2022/03/04 08:22:04;;;;;;;22.53;12.60;;;;;;;10.78;45.54;98993.69;5095351;28;20206;-66
2022/03/04 08:24:32;;;;;;;22.67;12.43;;;;;;;10.63;46.76;98991.34;5094394;28;20873;-58
2022/03/04 08:27:00;;;;;;;24.53;12.37;;;;;;;10.46;49.21;98989.22;5095960;28;20241;-58
2022/03/04 08:29:26;;;;;;;22.17;12.47;;;;;;;10.86;46.02;98991.38;5093507;28;20216;-58
2022/03/04 08:31:53;;;;;;;23.17;12.60;;;;;;;10.85;42.70;98990.56;5093678;28;20202;-67
2022/03/04 08:34:20;;;;;;;26.33;12.57;;;;;;;10.45;44.70;98992.72;5092924;28;20683;-58
2022/03/04 08:36:49;;;;;;;23.37;12.97;;;;;;;10.11;45.24;98992.56;5094465;28;20240;-59
2022/03/04 08:39:18;;;;;;;26.40;13.33;;;;;;;10.47;47.24;98993.41;5094724;28;20252;-58
2022/03/04 08:41:45;;;;;;;26.97;13.43;;;;;;;10.68;45.35;98992.75;5093866;28;20604;-57
2022/03/04 08:44:12;;;;;;;32.80;13.30;;;;;;;10.60;45.22;98991.56;5095152;28;20289;-60
2022/03/04 08:46:39;;;;;;;27.53;12.97;;;;;;;10.62;45.79;98994.03;5094286;28;20232;-66
2022/03/04 08:49:09;;;;;;;27.60;13.60;;;;;;;10.71;43.20;99007.88;5094819;28;20289;-59
2022/03/04 08:51:37;;;;;;;21.20;12.93;;;;;;;10.94;45.37;98994.19;5094802;28;20226;-67
2022/03/04 08:54:05;;;;;;;26.03;13.53;;;;;;;11.26;44.85;98993.50;5093788;28;20210;-67
2022/03/04 08:56:34;;;;;;;28.20;12.80;;;;;;;11.85;44.81;98995.72;5094144;28;20238;-58
2022/03/04 08:59:01;;;;;;;26.10;13.20;;;;;;;11.73;44.28;98999.22;5093825;28;20750;-66
2022/03/04 09:01:28;;;;;;;26.77;13.83;;;;;;;11.94;42.21;98997.56;5095387;28;20261;-58
2022/03/04 09:03:55;;;;;;;27.77;14.30;;;;;;;12.40;41.79;99000.75;5094304;28;20244;-61
2022/03/04 09:06:22;;;;;;;25.87;13.50;;;;;;;12.70;42.96;98997.44;5094108;28;20220;-58
2022/03/04 09:08:49;;;;;;;26.57;13.93;;;;;;;12.83;40.62;99000.63;5093428;28;20205;-67
2022/03/04 09:11:16;;;;;;;27.30;14.23;;;;;;;12.31;42.08;99002.31;5092461;28;20226;-66
2022/03/04 09:13:44;;;;;;;25.30;14.13;;;;;;;12.80;43.95;98997.47;5095512;28;20201;-63
2022/03/04 09:16:11;;;;;;;25.83;13.77;;;;;;;12.75;39.90;98997.88;5095531;28;20241;-58
2022/03/04 09:18:38;;;;;;;24.80;13.87;;;;;;;12.76;40.47;98996.91;5093059;28;20202;-57
2022/03/04 09:21:05;;;;;;;36.83;14.70;;;;;;;12.75;42.26;98991.94;5094449;28;20241;-66
2022/03/04 09:23:32;;;;;;;26.57;14.27;;;;;;;12.05;41.74;99001.03;5096013;28;20215;-58
2022/03/04 09:25:59;;;;;;;31.47;14.67;;;;;;;12.39;44.39;99005.09;5093242;28;20222;-62
2022/03/04 09:28:26;;;;;;;27.53;14.50;;;;;;;12.74;41.75;98998.81;5094720;28;20206;-58
2022/03/04 09:30:54;;;;;;;25.63;14.43;;;;;;;13.24;41.47;98996.34;5094480;28;20687;-66
2022/03/04 09:33:21;;;;;;;30.70;14.57;;;;;;;13.45;41.47;98996.28;5094657;28;20202;-58
2022/03/04 09:35:48;;;;;;;27.17;13.97;;;;;;;13.13;40.61;98996.44;5096263;28;20242;-66
2022/03/04 09:38:15;;;;;;;27.53;14.13;;;;;;;12.63;39.85;98993.75;5094122;28;20209;-59
2022/03/04 09:40:42;;;;;;;27.33;14.10;;;;;;;13.34;41.19;98996.38;5095196;28;20221;-64
2022/03/04 09:43:09;;;;;;;23.63;13.33;;;;;;;13.94;40.32;98989.47;5093732;28;20199;-66
2022/03/04 09:45:37;;;;;;;26.93;14.97;;;;;;;14.13;41.76;98991.22;5094022;28;20222;-66
2022/03/04 09:48:06;;;;;;;25.53;14.33;;;;;;;13.71;40.87;98999.19;5094520;28;20210;-66
2022/03/04 09:50:34;;;;;;;27.93;15.23;;;;;;;13.79;40.14;98989.06;5094658;28;20226;-66
2022/03/04 09:53:08;;;;;;;27.30;14.60;;;;;;;13.97;44.11;98988.41;5094307;28;20366;-58
2022/03/04 09:55:35;;;;;;;28.30;15.43;;;;;;;13.43;38.69;98984.53;5095857;28;20242;-57
2022/03/04 09:58:02;;;;;;;28.43;14.67;;;;;;;13.25;43.05;98982.56;5098570;28;20209;-58
2022/03/04 10:00:30;;;;;;;28.20;13.90;;;;;;;13.95;40.05;98977.44;5097807;28;20239;-67
2022/03/04 10:02:56;;;;;;;27.53;14.80;;;;;;;13.73;40.21;98976.75;5099089;28;20624;-58
2022/03/04 10:05:25;;;;;;;26.93;14.67;;;;;;;14.25;39.82;98982.44;5098036;28;20234;-65
2022/03/04 10:07:51;;;;;;;27.50;14.70;;;;;;;14.71;37.13;98977.50;5097959;28;20205;-59
2022/03/04 10:10:22;;;;;;;26.10;14.77;;;;;;;14.35;38.83;98966.19;5098702;28;20227;-58
2022/03/04 10:12:53;;;;;;;26.97;14.77;;;;;;;14.05;38.78;98965.41;5098203;28;20238;-58
2022/03/04 10:15:21;;;;;;;27.10;14.60;;;;;;;14.50;40.19;98965.59;5096579;28;20218;-67
2022/03/04 10:18:02;;;;;;;26.63;14.23;;;;;;;14.88;38.43;98958.75;5098044;28;20560;-67
2022/03/04 10:20:40;;;;;;;30.43;14.97;;;;;;;15.23;37.53;98956.44;5098732;28;20260;-67
2022/03/04 10:23:12;;;;;;;26.03;13.90;;;;;;;15.18;35.41;98949.13;5098751;28;20255;-59
2022/03/04 10:25:43;;;;;;;24.40;14.57;;;;;;;15.03;40.15;98948.78;5098062;28;20244;-58
2022/03/04 10:28:11;;;;;;;25.20;14.07;;;;;;;15.42;36.27;98953.75;5098209;28;20198;-58
2022/03/04 10:30:44;;;;;;;25.97;14.07;;;;;;;15.56;35.03;98947.28;5098601;28;20227;-67
2022/03/04 10:33:17;;;;;;;26.17;14.73;;;;;;;15.69;37.48;98946.97;5097194;28;20209;-67
2022/03/04 10:35:50;;;;;;;24.10;13.33;;;;;;;14.99;38.34;98939.75;5098806;28;20242;-58
2022/03/04 10:38:22;;;;;;;24.77;14.70;;;;;;;15.13;37.80;98936.69;5097392;28;20226;-59
2022/03/04 10:40:49;;;;;;;26.40;13.67;;;;;;;15.15;37.25;98939.94;5099191;28;20224;-58
2022/03/04 10:43:23;;;;;;;26.93;14.03;;;;;;;15.18;35.93;98946.53;5097699;28;20207;-59
2022/03/04 10:46:00;;;;;;;23.30;14.00;;;;;;;14.82;35.88;98943.06;5097183;28;20224;-58
2022/03/04 10:48:28;;;;;;;28.27;13.47;;;;;;;14.26;37.03;98942.91;5096325;28;20268;-67
2022/03/04 10:50:57;;;;;;;26.57;13.97;;;;;;;14.02;38.72;98948.47;5097141;28;20224;-67
2022/03/04 10:53:26;;;;;;;25.83;14.00;;;;;;;14.03;39.33;98944.97;5097323;28;20211;-58
2022/03/04 10:55:54;;;;;;;27.20;14.97;;;;;;;13.27;37.71;98955.03;5097865;28;20236;-58
2022/03/04 10:58:27;;;;;;;28.57;14.50;;;;;;;13.05;39.58;98944.91;5096725;28;20759;-67
2022/03/04 11:00:56;;;;;;;24.60;13.97;;;;;;;13.09;40.07;98941.16;5096360;28;20260;-58
2022/03/04 11:03:24;;;;;;;25.00;14.00;;;;;;;12.64;39.75;98941.50;5097921;28;20203;-58
2022/03/04 11:05:59;;;;;;;32.47;16.23;;;;;;;11.97;39.02;98940.94;5097519;28;20222;-58
2022/03/04 11:08:27;;;;;;;29.60;15.67;;;;;;;12.13;42.38;98937.13;5097966;28;20210;-59
2022/03/04 11:10:55;;;;;;;25.33;12.90;;;;;;;12.32;39.23;98927.03;5096792;28;20302;-58
2022/03/04 11:13:23;;;;;;;23.83;13.03;;;;;;;12.17;40.27;98933.41;5094522;28;20215;-66
2022/03/04 11:15:51;;;;;;;23.37;13.10;;;;;;;12.55;40.29;98922.56;5095155;28;20242;-58
2022/03/04 11:18:21;;;;;;;23.70;13.93;;;;;;;12.44;38.05;98926.00;5096630;28;20213;-66
2022/03/04 11:20:49;;;;;;;24.07;13.57;;;;;;;12.22;38.26;98921.03;5096866;28;20722;-58
2022/03/04 11:23:22;;;;;;;25.37;13.57;;;;;;;11.95;39.25;98930.00;5096913;28;20194;-58
2022/03/04 11:25:56;;;;;;;23.93;13.13;;;;;;;11.41;40.43;98914.69;5097647;28;20230;-58